Time;durP1;ratioP1;P1;durP2;ratioP2;P2;SDS_P1;SDS_P2;PMS_P1;PMS_P2;Temp;Humidity;BMP_temperature;BMP_pressure;BME280_temperature;BME280_humidity;BME280_pressure;Samples;Min_cycle;Max_cycle;Signal;HPM_P1;HPM_P2
2022/12/27 00:00:25;;;;;;;8.13;6.80;;;;;;;18.85;62.99;100653.00;5052824;28;20029;-71
2022/12/27 00:02:50;;;;;;;8.90;6.57;;;;;;;18.85;62.94;100653.00;5052759;28;20032;-71
2022/12/27 00:05:16;;;;;;;8.65;6.68;;;;;;;18.84;63.05;100652.13;5052848;28;20029;-70
2022/12/27 00:07:43;;;;;;;8.10;6.88;;;;;;;18.84;63.04;100643.34;5052647;28;20032;-71
2022/12/27 00:10:09;;;;;;;8.35;6.55;;;;;;;18.83;63.05;100641.63;5052226;28;20469;-71
2022/12/27 00:12:35;;;;;;;8.93;7.20;;;;;;;18.84;62.89;100624.81;5052386;28;20029;-71
2022/12/27 00:15:01;;;;;;;9.13;7.60;;;;;;;18.82;63.19;100616.06;5052570;28;20496;-70
2022/12/27 00:17:27;;;;;;;9.45;7.50;;;;;;;18.79;62.98;100627.59;5052720;28;20632;-71
2022/12/27 00:19:52;;;;;;;9.40;7.22;;;;;;;18.82;63.19;100632.81;5052625;28;20070;-71
2022/12/27 00:22:18;;;;;;;9.18;6.60;;;;;;;18.79;63.04;100628.47;5052451;28;20112;-71
2022/12/27 00:24:43;;;;;;;9.80;7.32;;;;;;;18.80;62.93;100632.00;5052573;28;20017;-71
2022/12/27 00:27:09;;;;;;;9.15;6.88;;;;;;;18.81;63.18;100631.09;5051940;28;20025;-70
2022/12/27 00:29:34;;;;;;;10.55;7.63;;;;;;;18.78;63.13;100632.03;5052554;28;20051;-70
2022/12/27 00:32:00;;;;;;;9.95;7.22;;;;;;;18.81;62.72;100638.13;5052521;28;20096;-70
2022/12/27 00:34:25;;;;;;;8.98;6.75;;;;;;;18.81;62.95;100638.13;5052386;28;20104;-71
2022/12/27 00:36:50;;;;;;;8.73;6.63;;;;;;;18.79;62.97;100638.19;5052381;28;20469;-70
2022/12/27 00:39:16;;;;;;;8.27;6.30;;;;;;;18.81;62.96;100638.13;5052495;28;20030;-70
2022/12/27 00:41:41;;;;;;;9.23;6.35;;;;;;;18.81;62.82;100640.78;5052124;28;20021;-71
2022/12/27 00:44:06;;;;;;;8.32;6.53;;;;;;;18.78;62.98;100645.28;5052392;28;20028;-70
2022/12/27 00:46:32;;;;;;;10.05;7.25;;;;;;;18.79;63.08;100646.13;5052368;28;20025;-70
2022/12/27 00:48:57;;;;;;;9.88;7.30;;;;;;;18.78;62.79;100634.69;5052415;28;20389;-71
2022/12/27 00:51:24;;;;;;;8.57;7.10;;;;;;;18.76;62.94;100639.19;5052378;28;20064;-70
2022/12/27 00:53:51;;;;;;;8.82;6.97;;;;;;;18.77;62.81;100643.53;5052211;28;20100;-70
2022/12/27 00:56:23;;;;;;;8.20;6.32;;;;;;;18.78;62.75;100642.63;5051950;28;20401;-70
2022/12/27 00:58:57;;;;;;;9.02;6.38;;;;;;;18.76;62.99;100639.19;5052167;28;20106;-70
2022/12/27 01:01:25;;;;;;;8.25;6.20;;;;;;;18.78;62.81;100652.31;5052144;28;20431;-70
2022/12/27 01:03:50;;;;;;;9.48;7.22;;;;;;;18.76;62.86;100644.47;5052210;28;20021;-71
2022/12/27 01:06:19;;;;;;;9.38;6.75;;;;;;;18.76;63.08;100639.19;5052154;28;20047;-70
2022/12/27 01:08:46;;;;;;;9.40;6.68;;;;;;;18.77;62.87;100645.31;5052082;28;20102;-71
2022/12/27 01:11:12;;;;;;;8.85;6.78;;;;;;;18.76;62.86;100655.03;5051732;28;20029;-70
2022/12/27 01:13:39;;;;;;;8.55;6.70;;;;;;;18.76;63.07;100648.88;5052063;28;20496;-70
2022/12/27 01:16:24;;;;;;;8.70;6.82;;;;;;;18.75;62.68;100658.56;5050534;28;20417;-70
2022/12/27 01:18:50;;;;;;;9.38;6.50;;;;;;;18.73;62.89;100655.13;5052122;28;20025;-71
2022/12/27 01:21:18;;;;;;;7.93;6.43;;;;;;;18.71;62.93;100650.81;5052050;28;20392;-70
2022/12/27 01:23:44;;;;;;;8.73;6.40;;;;;;;18.73;62.90;100649.84;5054855;28;20476;-71
2022/12/27 01:26:12;;;;;;;8.07;6.32;;;;;;;18.73;62.85;100655.13;5055277;28;20071;-70
2022/12/27 01:28:38;;;;;;;9.40;6.82;;;;;;;18.74;62.77;100661.28;5055540;28;20032;-70
2022/12/27 01:31:11;;;;;;;9.50;7.03;;;;;;;18.74;62.92;100670.06;5055673;28;20100;-71
2022/12/27 01:33:38;;;;;;;8.43;6.05;;;;;;;18.73;62.62;100668.34;5055572;28;20071;-71
2022/12/27 01:36:09;;;;;;;8.10;6.20;;;;;;;18.73;62.72;100671.00;5055518;28;20025;-70
2022/12/27 01:38:34;;;;;;;8.57;6.50;;;;;;;18.72;63.03;100666.63;5055530;28;20044;-71
2022/12/27 01:42:50;;;;;;;8.40;5.95;;;;;;;18.73;62.68;100660.41;5055127;28;20021;-70
2022/12/27 01:43:45;;;;;;;8.30;6.13;;;;;;;18.75;62.59;100663.88;5055307;28;20033;-71
2022/12/27 01:46:10;;;;;;;8.77;6.15;;;;;;;18.72;62.76;100660.44;5055250;28;20030;-71
2022/12/27 01:48:36;;;;;;;8.48;6.55;;;;;;;18.72;62.85;100674.56;5055271;28;20485;-70
2022/12/27 01:51:04;;;;;;;8.75;6.35;;;;;;;18.72;62.77;100671.91;5055194;28;20086;-70
2022/12/27 01:53:38;;;;;;;7.47;5.97;;;;;;;18.72;62.95;100671.91;5054954;28;20056;-70
2022/12/27 01:56:08;;;;;;;7.95;6.32;;;;;;;18.73;62.61;100665.69;5054721;28;20436;-71
2022/12/27 01:58:50;;;;;;;7.82;6.38;;;;;;;18.70;62.67;100670.22;5054986;28;20036;-70
2022/12/27 02:01:20;;;;;;;8.23;6.13;;;;;;;18.71;62.98;100674.59;5055006;28;20432;-70
2022/12/27 02:03:50;;;;;;;9.85;6.38;;;;;;;18.71;62.87;100677.25;5055016;28;20425;-70
2022/12/27 02:06:18;;;;;;;7.10;6.05;;;;;;;18.71;62.69;100669.31;5054903;28;20482;-70
2022/12/27 02:09:16;;;;;;;9.00;6.88;;;;;;;18.69;62.60;100674.63;5053250;28;20021;-70
2022/12/27 02:11:50;;;;;;;8.25;6.60;;;;;;;18.69;62.59;100679.94;5032486;28;20449;-70
2022/12/27 02:14:38;;;;;;;8.73;5.93;;;;;;;18.69;62.72;100673.78;5032591;28;20033;-71
2022/12/27 02:17:14;;;;;;;8.13;6.45;;;;;;;18.71;62.56;100667.53;5032092;28;20041;-70
2022/12/27 02:19:39;;;;;;;7.50;5.60;;;;;;;18.69;62.59;100679.94;5032696;28;20421;-70
2022/12/27 02:22:19;;;;;;;7.60;6.10;;;;;;;18.70;62.71;100681.66;5032370;28;20034;-70
2022/12/27 02:25:01;;;;;;;7.88;6.00;;;;;;;18.70;62.73;100671.06;5032172;28;20036;-71
2022/12/27 02:27:42;;;;;;;8.18;5.97;;;;;;;18.70;62.81;100665.78;5032379;28;20037;-70
2022/12/27 02:30:09;;;;;;;9.10;6.35;;;;;;;18.70;62.62;100676.38;5032289;28;20068;-71
2022/12/27 02:32:41;;;;;;;8.15;6.28;;;;;;;18.70;62.60;100671.06;5032512;28;20057;-71
2022/12/27 02:35:23;;;;;;;7.35;5.53;;;;;;;18.68;62.72;100666.78;5032020;28;20037;-70
2022/12/27 02:37:57;;;;;;;7.07;5.43;;;;;;;18.69;62.76;100679.09;5032037;28;20034;-70
2022/12/27 02:55:11;;;;;;;6.45;5.20;;;;;;;18.63;62.70;100672.19;5053958;28;20109;-70
2022/12/27 02:57:58;;;;;;;8.52;5.82;;;;;;;18.64;62.64;100677.44;5053956;28;20100;-70
2022/12/27 03:03:22;;;;;;;9.35;5.93;;;;;;;18.61;62.60;100666.09;5054108;28;20492;-71
2022/12/27 03:08:53;;;;;;;8.60;5.75;;;;;;;18.63;62.49;100664.25;5053290;28;20035;-71
2022/12/27 03:17:12;;;;;;;8.02;5.60;;;;;;;18.63;62.58;100680.13;5053597;28;20051;-70
2022/12/27 03:25:29;;;;;;;8.27;5.78;;;;;;;18.62;62.48;100678.41;5053707;28;20131;-70
2022/12/27 03:33:58;;;;;;;7.10;5.25;;;;;;;18.59;62.65;100678.50;5053247;28;19919;-70
2022/12/27 03:39:35;;;;;;;6.60;4.90;;;;;;;18.60;62.54;100664.38;5053247;28;20035;-71
2022/12/27 03:44:55;;;;;;;6.75;4.70;;;;;;;18.60;62.48;100674.94;5052560;28;20452;-71
2022/12/27 03:48:03;;;;;;;7.00;4.95;;;;;;;18.59;62.57;100668.78;5053118;28;20033;-71
2022/12/27 03:50:37;;;;;;;6.53;4.95;;;;;;;18.55;62.60;100661.00;5047936;28;20400;-71
2022/12/27 03:53:11;;;;;;;7.57;5.65;;;;;;;18.58;62.76;100663.53;5052930;28;20059;-71
2022/12/27 03:55:37;;;;;;;7.15;4.78;;;;;;;18.58;62.57;100666.19;5051746;28;20025;-71
2022/12/27 03:58:03;;;;;;;6.75;4.78;;;;;;;18.57;62.47;100667.09;5052840;28;20465;-70
2022/12/27 04:00:29;;;;;;;6.30;4.63;;;;;;;18.57;62.30;100670.63;5052856;28;20033;-71
2022/12/27 04:02:55;;;;;;;6.82;5.15;;;;;;;18.57;62.65;100675.03;5052770;28;20025;-71
2022/12/27 04:05:22;;;;;;;7.03;5.00;;;;;;;18.57;62.72;100680.31;5052299;28;20070;-70
2022/12/27 04:35:07;;;;;;;6.68;4.60;;;;;;;18.54;62.38;100686.56;5052022;28;20440;-70
2022/12/27 04:37:32;;;;;;;6.80;4.80;;;;;;;18.52;62.38;100689.28;5052512;28;20029;-70
2022/12/27 04:56:27;;;;;;;6.05;4.43;;;;;;;18.49;62.50;100688.47;5053539;28;20047;-72
2022/12/27 05:04:20;;;;;;;5.97;4.38;;;;;;;18.49;62.47;100684.06;5055939;28;20074;-72
2022/12/27 05:06:45;;;;;;;5.93;4.22;;;;;;;18.48;62.22;100679.72;5055806;28;20428;-72
2022/12/27 05:14:43;;;;;;;5.32;3.95;;;;;;;18.47;62.22;100685.91;5053669;28;20077;-73
2022/12/27 05:17:09;;;;;;;6.55;4.22;;;;;;;18.49;62.48;100684.06;5053281;28;20072;-73
2022/12/27 05:19:34;;;;;;;6.25;4.20;;;;;;;18.50;62.28;100674.38;5053643;28;20036;-72
2022/12/27 05:27:28;;;;;;;6.18;4.32;;;;;;;18.50;62.25;100669.09;5053501;28;20040;-72
2022/12/27 05:29:53;;;;;;;5.93;4.25;;;;;;;18.48;62.25;100677.06;5053529;28;20029;-72
2022/12/27 05:32:19;;;;;;;5.32;3.83;;;;;;;18.46;62.42;100673.59;5053101;28;20040;-72
2022/12/27 05:34:44;;;;;;;6.35;4.32;;;;;;;18.44;62.25;100678.06;5053394;28;20162;-72
2022/12/27 05:37:10;;;;;;;5.97;4.38;;;;;;;18.44;62.16;100683.34;5053412;28;20497;-72
2022/12/27 05:39:35;;;;;;;6.28;4.05;;;;;;;18.43;62.62;100680.75;5053272;28;20107;-72
2022/12/27 05:42:02;;;;;;;5.65;4.15;;;;;;;18.44;62.50;100680.69;5053302;28;20021;-72
2022/12/27 05:44:27;;;;;;;5.80;3.67;;;;;;;18.44;62.27;100679.84;5053039;28;20126;-73
2022/12/27 05:46:53;;;;;;;6.53;4.13;;;;;;;18.45;62.43;100686.88;5052752;28;20098;-72
2022/12/27 05:49:19;;;;;;;6.60;4.07;;;;;;;18.44;62.31;100674.56;5053156;28;20159;-73
2022/12/27 05:51:44;;;;;;;7.07;4.22;;;;;;;18.46;62.36;100676.22;5054134;28;20424;-73
2022/12/27 05:54:09;;;;;;;5.40;3.90;;;;;;;18.43;62.31;100671.06;5055128;28;20032;-72
2022/12/27 05:56:36;;;;;;;6.05;3.78;;;;;;;18.44;62.26;100664.00;5055188;28;20025;-72
2022/12/27 05:59:02;;;;;;;5.90;4.15;;;;;;;18.44;62.17;100670.13;5055007;28;20036;-72
2022/12/27 06:01:27;;;;;;;5.43;3.60;;;;;;;18.45;62.21;100666.56;5054825;28;20061;-72
2022/12/27 06:03:53;;;;;;;5.63;3.85;;;;;;;18.42;62.23;100671.97;5055057;28;20063;-72
2022/12/27 06:06:18;;;;;;;5.50;3.67;;;;;;;18.41;62.34;100658.78;5054974;28;20071;-72
2022/12/27 06:08:44;;;;;;;5.60;3.80;;;;;;;18.41;62.06;100664.97;5054309;28;20463;-72
2022/12/27 06:11:12;;;;;;;5.47;3.95;;;;;;;18.42;62.38;100676.38;5054929;28;20071;-72
2022/12/27 06:13:40;;;;;;;6.10;3.95;;;;;;;18.42;62.30;100673.72;5054840;28;20051;-72
2022/12/27 06:16:08;;;;;;;5.93;4.15;;;;;;;18.41;62.25;100672.00;5054451;28;20451;-72
2022/12/27 06:18:36;;;;;;;5.35;3.70;;;;;;;18.40;62.34;100681.69;5054791;28;20033;-73
2022/12/27 06:21:27;;;;;;;5.25;3.50;;;;;;;18.40;62.30;100676.41;5054721;28;20028;-73
2022/12/27 06:23:52;;;;;;;6.47;3.97;;;;;;;18.40;61.98;100679.06;5054632;28;20099;-73
2022/12/27 06:26:21;;;;;;;5.40;4.10;;;;;;;18.39;62.38;100687.91;5054567;28;20457;-72
2022/12/27 06:28:48;;;;;;;5.10;3.53;;;;;;;18.41;62.35;100685.22;5054490;28;20028;-72
2022/12/27 06:31:14;;;;;;;4.80;3.20;;;;;;;18.40;62.30;100679.06;5054129;28;20025;-73
2022/12/27 06:33:39;;;;;;;5.43;3.13;;;;;;;18.38;62.09;100684.41;5054397;28;20100;-73
2022/12/27 06:36:11;;;;;;;4.93;3.50;;;;;;;18.39;62.20;100679.97;5054414;28;20074;-72
2022/12/27 06:38:36;;;;;;;5.68;3.60;;;;;;;18.38;61.96;100678.25;5053044;28;20021;-72
2022/12/27 06:41:03;;;;;;;4.93;3.40;;;;;;;18.38;62.28;100681.78;5054363;28;20028;-72
2022/12/27 06:43:29;;;;;;;5.05;3.60;;;;;;;18.36;62.39;100682.72;5054246;28;20071;-72
2022/12/27 06:45:59;;;;;;;4.82;3.28;;;;;;;18.38;62.16;100680.91;5054013;28;20021;-72
2022/12/27 06:48:24;;;;;;;5.13;3.40;;;;;;;18.37;62.17;100673.88;5054030;28;20110;-72
2022/12/27 06:50:50;;;;;;;5.28;3.42;;;;;;;18.37;62.21;100673.88;5054041;28;20434;-72
2022/12/27 06:53:15;;;;;;;6.05;3.65;;;;;;;18.38;62.36;100679.13;5053971;28;20111;-72
2022/12/27 06:55:40;;;;;;;4.90;3.20;;;;;;;18.36;62.18;100683.56;5052680;28;20017;-73
2022/12/27 06:58:06;;;;;;;4.78;3.28;;;;;;;18.37;62.00;100680.00;5054056;28;20520;-73
2022/12/27 07:00:31;;;;;;;4.75;3.22;;;;;;;18.37;62.16;100673.88;5053550;28;20104;-72
2022/12/27 07:02:57;;;;;;;4.90;3.47;;;;;;;18.38;62.02;100667.69;5053808;28;20493;-72
2022/12/27 07:05:22;;;;;;;4.78;3.22;;;;;;;18.37;62.29;100673.88;5053887;28;20021;-72
2022/12/27 07:07:47;;;;;;;5.45;3.45;;;;;;;18.34;62.06;100684.53;5053776;28;20120;-72
2022/12/27 07:10:13;;;;;;;5.05;3.35;;;;;;;18.37;62.16;100685.31;5053771;28;20025;-72
2022/12/27 07:12:38;;;;;;;4.70;3.22;;;;;;;18.36;62.11;100682.72;5053646;28;20025;-72
2022/12/27 07:15:05;;;;;;;5.03;3.40;;;;;;;18.33;62.07;100677.53;5053324;28;20464;-72
2022/12/27 07:17:33;;;;;;;4.63;3.28;;;;;;;18.35;61.87;100670.44;5053404;28;20053;-73
2022/12/27 07:19:58;;;;;;;5.63;3.30;;;;;;;18.37;61.90;100668.59;5052647;28;20481;-72
2022/12/27 07:22:25;;;;;;;4.32;2.88;;;;;;;18.33;62.05;100656.38;5053558;28;20108;-71
2022/12/27 07:24:50;;;;;;;4.47;2.78;;;;;;;18.34;62.11;100659.00;5053400;28;20021;-72
2022/12/27 07:27:16;;;;;;;4.72;3.22;;;;;;;18.33;61.88;100662.53;5053308;28;20051;-73
2022/12/27 07:29:41;;;;;;;5.05;3.15;;;;;;;18.33;62.10;100674.88;5053109;28;20075;-73
2022/12/27 07:32:06;;;;;;;4.57;3.10;;;;;;;18.35;62.17;100675.72;5053313;28;20028;-72
2022/12/27 07:34:32;;;;;;;4.90;3.00;;;;;;;18.32;62.32;100671.38;5053321;28;20520;-72
2022/12/27 07:36:57;;;;;;;5.47;3.00;;;;;;;18.33;61.97;100661.66;5053283;28;20121;-72
2022/12/27 07:39:22;;;;;;;4.75;2.78;;;;;;;18.30;61.94;100657.34;5053136;28;20051;-72
2022/12/27 07:41:48;;;;;;;4.10;2.85;;;;;;;18.33;62.22;100644.06;5053283;28;20063;-72
2022/12/27 07:44:13;;;;;;;4.35;2.70;;;;;;;18.33;61.99;100651.09;5052976;28;20056;-73
2022/12/27 07:46:39;;;;;;;4.97;2.80;;;;;;;18.32;62.13;100654.66;5053086;28;20440;-72
2022/12/27 07:49:04;;;;;;;4.70;2.92;;;;;;;18.32;62.06;100659.94;5053021;28;20035;-72
2022/12/27 07:51:29;;;;;;;4.88;2.88;;;;;;;18.30;61.95;100659.97;5052921;28;20436;-72
2022/12/27 08:07:26;;;;;;;4.40;2.72;;;;;;;18.16;62.64;100668.31;5089613;27;20378;-77
2022/12/27 08:09:51;;;;;;;4.47;2.67;;;;;;;18.19;62.18;100675.28;5088113;28;20036;-76
2022/12/27 08:12:17;;;;;;;4.72;3.08;;;;;;;18.21;62.49;100684.91;5089676;28;20028;-76
2022/12/27 08:14:42;;;;;;;5.28;3.28;;;;;;;18.23;62.24;100688.38;5088014;28;20027;-77
2022/12/27 08:17:19;;;;;;;4.35;2.88;;;;;;;18.23;62.33;100698.06;5089506;28;20031;-76
2022/12/27 08:19:44;;;;;;;4.10;2.60;;;;;;;18.24;62.15;100705.97;5089460;28;20034;-76
2022/12/27 08:22:10;;;;;;;4.90;3.00;;;;;;;18.25;62.06;100707.69;5089544;28;20028;-76
2022/12/27 08:24:37;;;;;;;3.97;2.50;;;;;;;18.24;62.10;100705.97;5089463;28;20183;-77
2022/12/27 08:27:03;;;;;;;4.40;2.53;;;;;;;18.25;62.40;100697.13;5089439;28;20055;-76
2022/12/27 08:29:28;;;;;;;5.38;3.22;;;;;;;18.28;62.01;100688.25;5088967;28;20024;-76
2022/12/27 08:31:54;;;;;;;4.68;2.75;;;;;;;18.25;62.25;100697.13;5089406;28;20115;-77
2022/12/27 08:34:19;;;;;;;4.60;2.88;;;;;;;18.28;62.18;100705.84;5089114;28;20039;-77
2022/12/27 08:36:44;;;;;;;3.85;2.53;;;;;;;18.28;62.15;100695.28;5089038;28;20028;-77
2022/12/27 08:39:10;;;;;;;3.95;2.80;;;;;;;18.29;62.00;100697.00;5089326;28;20034;-77
2022/12/27 08:41:36;;;;;;;4.25;2.85;;;;;;;18.27;61.96;100699.72;5089290;28;20023;-77
2022/12/27 08:44:02;;;;;;;5.30;3.00;;;;;;;18.28;62.23;100700.56;5088446;28;20500;-76
2022/12/27 08:46:27;;;;;;;4.97;2.70;;;;;;;18.26;61.89;100703.28;5088043;28;20054;-77
2022/12/27 08:48:53;;;;;;;3.78;2.63;;;;;;;18.25;62.34;100718.25;5087654;28;20021;-77
2022/12/27 08:51:18;;;;;;;4.10;2.70;;;;;;;18.25;62.15;100718.25;5087458;28;20020;-77
2022/12/27 08:53:44;;;;;;;4.28;2.88;;;;;;;18.25;62.04;100723.53;5086189;28;20031;-77
2022/12/27 08:56:09;;;;;;;4.53;2.85;;;;;;;18.25;61.91;100704.16;5087242;28;20109;-77
2022/12/27 08:58:35;;;;;;;4.45;2.65;;;;;;;18.25;62.02;100702.41;5085596;28;20052;-77
2022/12/27 09:01:08;;;;;;;4.47;2.85;;;;;;;18.27;62.03;100688.28;5086751;28;20020;-77
2022/12/27 09:03:33;;;;;;;4.07;2.58;;;;;;;18.25;62.21;100702.41;5087255;28;20036;-77
2022/12/27 09:06:10;;;;;;;4.35;2.63;;;;;;;18.24;62.00;100698.03;5086165;28;20060;-77
2022/12/27 09:08:36;;;;;;;4.63;2.53;;;;;;;18.23;61.99;100706.00;5072302;28;20032;-77
2022/12/27 09:11:28;;;;;;;5.22;2.60;;;;;;;18.23;62.06;100714.81;5073768;28;20099;-77
2022/12/27 09:13:54;;;;;;;4.50;2.95;;;;;;;18.24;61.96;100719.19;5105945;28;20692;-77
2022/12/27 09:16:23;;;;;;;5.13;2.97;;;;;;;18.24;62.20;100719.19;5073628;28;20032;-77
2022/12/27 09:18:51;;;;;;;4.72;2.72;;;;;;;18.25;61.86;100725.31;5074990;28;20371;-77
2022/12/27 09:21:18;;;;;;;4.07;2.50;;;;;;;18.25;61.90;100726.19;5075234;28;20454;-77
2022/12/27 09:23:45;;;;;;;4.80;2.88;;;;;;;18.23;61.91;100725.38;5075052;28;20070;-77
2022/12/27 09:26:22;;;;;;;5.00;3.08;;;;;;;18.24;62.03;100732.38;5075138;28;20032;-79
2022/12/27 09:28:49;;;;;;;3.72;2.33;;;;;;;18.24;62.32;100732.38;5074860;28;20013;-77
2022/12/27 09:31:16;;;;;;;4.05;2.70;;;;;;;18.25;62.00;100738.50;5074782;28;20025;-77
2022/12/27 09:33:43;;;;;;;3.47;2.20;;;;;;;18.27;61.98;100741.13;5075122;28;20021;-77
2022/12/27 09:36:11;;;;;;;4.10;2.45;;;;;;;18.25;62.02;100743.81;5074576;28;20055;-77
2022/12/27 09:38:37;;;;;;;4.10;2.60;;;;;;;18.27;62.06;100746.41;5074941;28;20486;-76
2022/12/27 09:41:05;;;;;;;4.03;2.50;;;;;;;18.25;62.20;100743.81;5074889;28;20516;-77
2022/12/27 09:43:43;;;;;;;3.92;2.72;;;;;;;18.24;61.97;100748.25;5074458;28;20500;-77
2022/12/27 09:46:23;;;;;;;3.83;2.55;;;;;;;18.24;61.91;100742.06;5074618;28;20048;-77
2022/12/27 09:48:51;;;;;;;4.85;2.60;;;;;;;18.25;61.90;100744.69;5073726;28;20394;-77
2022/12/27 09:51:21;;;;;;;4.30;2.55;;;;;;;18.24;61.97;100742.06;5074691;28;20416;-77
2022/12/27 09:54:11;;;;;;;3.85;2.65;;;;;;;18.23;61.86;100741.22;5074493;28;20028;-77
2022/12/27 09:56:36;;;;;;;4.45;2.60;;;;;;;18.24;61.92;100737.66;5074044;28;20032;-76
2022/12/27 09:59:15;;;;;;;4.25;2.60;;;;;;;18.25;62.11;100733.22;5074389;28;20032;-77
2022/12/27 10:01:41;;;;;;;3.42;2.40;;;;;;;18.25;62.18;100718.25;5074113;28;20425;-77
2022/12/27 10:04:17;;;;;;;3.95;2.42;;;;;;;18.25;61.87;100726.19;5074338;28;20025;-75
2022/12/27 10:06:48;;;;;;;4.38;2.50;;;;;;;18.27;62.16;100719.97;5073984;28;20048;-76
2022/12/27 10:09:25;;;;;;;4.40;2.53;;;;;;;18.24;61.79;100720.94;5074196;28;20036;-77
2022/12/27 10:12:42;;;;;;;4.70;3.05;;;;;;;18.25;61.95;100720.03;5073809;28;20032;-77
2022/12/27 10:15:49;;;;;;;4.25;2.70;;;;;;;18.24;62.10;100721.81;5012080;28;20117;-77
2022/12/27 10:18:45;;;;;;;4.65;3.00;;;;;;;18.25;61.94;100720.91;4914926;29;20573;-77
2022/12/27 10:21:21;;;;;;;5.22;2.97;;;;;;;18.24;61.82;100729.75;4915751;29;20502;-77
2022/12/27 10:24:18;;;;;;;5.25;3.47;;;;;;;18.26;62.08;100727.06;4915594;29;20043;-77
2022/12/27 10:26:43;;;;;;;4.32;3.00;;;;;;;18.25;61.75;100718.25;4911302;29;20036;-77
2022/12/27 10:29:29;;;;;;;4.07;2.90;;;;;;;18.25;62.05;100723.53;4915524;29;20091;-76
2022/12/27 10:31:54;;;;;;;5.25;3.22;;;;;;;18.23;62.13;100725.38;4915442;29;20036;-77
2022/12/27 10:34:23;;;;;;;4.53;2.88;;;;;;;18.24;61.90;100727.09;4915566;29;20032;-76
2022/12/27 10:36:50;;;;;;;4.75;3.03;;;;;;;18.24;61.87;100728.88;4915407;29;20052;-77
2022/12/27 10:39:26;;;;;;;4.15;2.70;;;;;;;18.23;61.94;100735.94;4915093;29;20051;-76
2022/12/27 10:42:13;;;;;;;4.30;3.00;;;;;;;18.24;62.00;100734.16;4915300;29;20036;-76
2022/12/27 10:44:38;;;;;;;4.78;2.75;;;;;;;18.24;62.15;100726.22;4915297;29;20102;-77
2022/12/27 10:47:04;;;;;;;4.35;2.53;;;;;;;18.27;61.96;100730.56;4974672;28;20030;-76
2022/12/27 10:49:31;;;;;;;4.90;2.72;;;;;;;18.28;61.75;100716.44;4992021;28;20049;-77
2022/12/27 10:52:25;;;;;;;5.00;3.17;;;;;;;18.24;61.85;100721.81;4992092;28;20080;-77
2022/12/27 10:54:54;;;;;;;4.03;2.45;;;;;;;18.29;61.93;100723.44;5029048;28;20146;-77
2022/12/27 10:57:26;;;;;;;4.82;2.67;;;;;;;18.29;62.12;100713.75;5073261;28;20477;-77
2022/12/27 11:00:15;;;;;;;4.07;2.72;;;;;;;18.27;61.90;100693.56;5073272;28;20387;-77
2022/12/27 11:02:55;;;;;;;4.13;2.58;;;;;;;18.27;62.06;100688.28;5072753;28;20082;-76
2022/12/27 11:05:32;;;;;;;4.40;2.70;;;;;;;18.29;61.93;100681.16;5072994;28;20052;-77
2022/12/27 11:08:00;;;;;;;4.65;2.80;;;;;;;18.27;62.25;100688.28;5072928;28;20052;-77
2022/12/27 11:10:31;;;;;;;4.20;2.40;;;;;;;18.27;61.73;100683.00;5072669;28;20024;-76
2022/12/27 11:13:00;;;;;;;4.32;2.42;;;;;;;18.29;62.01;100683.81;5071644;28;20364;-76
2022/12/27 11:15:29;;;;;;;4.68;2.70;;;;;;;18.30;62.08;100685.56;5072983;28;20166;-77
2022/12/27 11:17:57;;;;;;;3.78;2.70;;;;;;;18.31;61.88;100689.94;5071447;28;20027;-76
2022/12/27 11:20:45;;;;;;;4.22;2.53;;;;;;;18.32;61.63;100696.94;5072874;28;20028;-77
2022/12/27 11:23:18;;;;;;;4.70;2.40;;;;;;;18.30;61.81;100682.91;5072136;28;20517;-76
2022/12/27 11:25:55;;;;;;;3.65;2.42;;;;;;;18.32;61.89;100683.72;5072901;28;20020;-77
2022/12/27 11:28:33;;;;;;;3.55;2.30;;;;;;;18.29;61.89;100687.31;5072834;28;20098;-77
2022/12/27 11:31:04;;;;;;;3.28;2.15;;;;;;;18.31;61.97;100695.22;5071404;28;20032;-76
2022/12/27 11:33:33;;;;;;;4.18;2.60;;;;;;;18.31;61.90;100684.66;5072779;28;20020;-76
2022/12/27 11:35:59;;;;;;;3.35;2.13;;;;;;;18.31;61.91;100679.34;5074846;28;20032;-76
2022/12/27 11:38:28;;;;;;;4.20;2.55;;;;;;;18.32;61.63;100675.78;5077281;28;20054;-77
2022/12/27 11:41:01;;;;;;;3.85;2.50;;;;;;;18.32;62.01;100670.50;5074143;28;20027;-77
2022/12/27 11:43:32;;;;;;;4.38;2.50;;;;;;;18.32;61.91;100663.47;5072887;28;20016;-77
2022/12/27 11:46:02;;;;;;;3.42;2.20;;;;;;;18.32;61.68;100655.53;5072679;28;20020;-77
2022/12/27 11:48:36;;;;;;;4.53;2.83;;;;;;;18.33;61.86;100645.81;5072552;28;20104;-76
2022/12/27 11:51:16;;;;;;;4.03;2.60;;;;;;;18.33;61.92;100657.25;5072578;28;20477;-76
2022/12/27 11:54:04;;;;;;;3.88;2.63;;;;;;;18.33;61.79;100657.25;5072324;28;20024;-77
2022/12/27 11:56:34;;;;;;;3.88;2.53;;;;;;;18.33;61.99;100662.53;5072420;28;20033;-76
2022/12/27 11:59:19;;;;;;;4.43;2.60;;;;;;;18.34;62.04;100658.09;5072718;28;20607;-76
2022/12/27 12:02:23;;;;;;;3.40;2.15;;;;;;;18.34;62.01;100653.69;5071981;28;20501;-77
2022/12/27 12:05:29;;;;;;;4.03;2.40;;;;;;;18.32;61.65;100639.69;5072296;28;20024;-77
2022/12/27 12:07:57;;;;;;;4.53;2.83;;;;;;;18.35;61.80;100631.63;5071762;28;20064;-77
2022/12/27 12:11:01;;;;;;;4.03;2.65;;;;;;;18.36;61.66;100624.59;5072345;28;20039;-76
2022/12/27 12:13:54;;;;;;;3.80;2.40;;;;;;;18.33;61.89;100620.28;5030078;28;20505;-77
2022/12/27 12:16:55;;;;;;;3.97;2.38;;;;;;;18.33;61.85;100620.28;5030087;28;20036;-77
2022/12/27 12:19:38;;;;;;;4.32;2.70;;;;;;;18.34;61.74;100631.69;5013371;28;20030;-77
2022/12/27 12:22:28;;;;;;;4.43;2.47;;;;;;;18.35;61.89;100609.66;5029732;28;20156;-77
2022/12/27 12:25:06;;;;;;;3.97;2.20;;;;;;;18.35;61.65;100610.50;5030063;28;20622;-76
2022/12/27 12:27:40;;;;;;;3.78;2.40;;;;;;;18.36;61.69;100630.72;5029918;28;20097;-76
2022/12/27 12:30:43;;;;;;;3.25;2.33;;;;;;;18.36;62.01;100624.59;5029978;28;20499;-76
2022/12/27 12:33:22;;;;;;;4.57;2.80;;;;;;;18.36;61.86;100636.00;5029887;28;20029;-77
2022/12/27 12:36:06;;;;;;;4.38;2.60;;;;;;;18.36;61.97;100632.53;5029507;28;20045;-77
2022/12/27 12:39:02;;;;;;;2.92;2.08;;;;;;;18.36;62.10;100635.16;5029752;28;20120;-77
2022/12/27 12:42:07;;;;;;;3.60;2.20;;;;;;;18.34;61.95;100637.84;5029393;28;20034;-76
2022/12/27 12:44:33;;;;;;;3.63;2.40;;;;;;;18.34;61.84;100637.84;5022799;28;20124;-77
2022/12/27 12:47:03;;;;;;;3.38;2.25;;;;;;;18.37;62.02;100631.59;5016926;28;20116;-77
2022/12/27 12:49:56;;;;;;;3.55;2.40;;;;;;;18.37;61.75;100637.72;5020759;28;20032;-75
2022/12/27 12:52:53;;;;;;;3.47;2.30;;;;;;;18.37;61.65;100627.16;5075275;28;20029;-77
2022/12/27 12:55:52;;;;;;;3.45;2.20;;;;;;;18.41;61.83;100617.38;5075337;28;20504;-76
2022/12/27 12:58:20;;;;;;;3.90;2.38;;;;;;;18.37;61.96;100623.69;5075373;28;20059;-77
2022/12/27 13:01:03;;;;;;;3.70;2.13;;;;;;;18.38;61.95;100617.47;5075321;28;20036;-76
2022/12/27 13:04:09;;;;;;;3.17;2.20;;;;;;;18.36;61.72;100636.00;5075309;28;20047;-76
2022/12/27 13:06:41;;;;;;;4.10;2.35;;;;;;;18.39;61.97;100613.91;5073790;28;20525;-76
2022/12/27 13:09:31;;;;;;;3.75;2.20;;;;;;;18.38;61.71;100618.34;5073750;28;20024;-76
2022/12/27 13:11:59;;;;;;;3.80;2.30;;;;;;;18.37;61.90;100621.88;5075123;28;20055;-76
2022/12/27 13:14:27;;;;;;;4.20;2.60;;;;;;;18.39;61.81;100608.63;5075103;28;20056;-77
2022/12/27 13:17:02;;;;;;;4.20;2.33;;;;;;;18.40;61.91;100604.22;5073798;28;20025;-76
2022/12/27 13:19:33;;;;;;;4.35;2.28;;;;;;;18.40;61.67;100605.06;5074744;28;20030;-75
2022/12/27 13:22:07;;;;;;;3.75;2.20;;;;;;;18.41;61.75;100595.38;5074991;28;20025;-77
2022/12/27 13:24:51;;;;;;;5.03;2.70;;;;;;;18.40;61.64;100594.50;5075073;28;20397;-78
2022/12/27 13:27:31;;;;;;;3.97;2.30;;;;;;;18.40;61.66;100594.50;5074866;28;20137;-77
2022/12/27 13:30:19;;;;;;;3.38;2.10;;;;;;;18.42;61.74;100586.53;5074937;28;20028;-76
2022/12/27 13:33:15;;;;;;;3.67;2.42;;;;;;;18.42;61.61;100582.13;5074762;28;20073;-77
2022/12/27 13:35:58;;;;;;;4.00;2.30;;;;;;;18.42;61.94;100579.47;5074828;28;20439;-77
2022/12/27 13:39:00;;;;;;;3.50;2.30;;;;;;;18.42;61.76;100571.53;5074647;28;20783;-77
2022/12/27 13:41:48;;;;;;;4.53;2.35;;;;;;;18.43;61.81;100573.25;5074769;28;20020;-76
2022/12/27 13:44:33;;;;;;;3.45;2.38;;;;;;;18.43;61.79;100567.97;5073526;28;20111;-77